sensor_id;sensor_type;location;lat;lon;timestamp;P1;durP1;ratioP1;P2;durP2;ratioP2
11414;SDS011;5763;42.714;23.244;2023-06-26T00:01:28;15.10;;;13.48;;
11414;SDS011;5763;42.714;23.244;2023-06-26T00:03:56;15.88;;;13.82;;
11414;SDS011;5763;42.714;23.244;2023-06-26T00:06:23;15.63;;;13.90;;
11414;SDS011;5763;42.714;23.244;2023-06-26T00:08:51;15.13;;;13.60;;
11414;SDS011;5763;42.714;23.244;2023-06-26T00:11:18;14.98;;;13.48;;
11414;SDS011;5763;42.714;23.244;2023-06-26T00:13:45;14.68;;;12.85;;
11414;SDS011;5763;42.714;23.244;2023-06-26T00:16:14;15.50;;;13.35;;
11414;SDS011;5763;42.714;23.244;2023-06-26T00:18:41;14.63;;;13.13;;
11414;SDS011;5763;42.714;23.244;2023-06-26T00:21:08;14.15;;;12.77;;
11414;SDS011;5763;42.714;23.244;2023-06-26T00:23:35;13.57;;;12.18;;
11414;SDS011;5763;42.714;23.244;2023-06-26T00:26:02;14.25;;;12.85;;
11414;SDS011;5763;42.714;23.244;2023-06-26T00:28:30;13.75;;;12.30;;
11414;SDS011;5763;42.714;23.244;2023-06-26T00:30:56;14.00;;;12.40;;
11414;SDS011;5763;42.714;23.244;2023-06-26T00:33:24;13.85;;;12.45;;
11414;SDS011;5763;42.714;23.244;2023-06-26T00:35:51;12.80;;;11.23;;
11414;SDS011;5763;42.714;23.244;2023-06-26T00:38:18;12.90;;;11.63;;
11414;SDS011;5763;42.714;23.244;2023-06-26T00:40:45;12.77;;;11.48;;
11414;SDS011;5763;42.714;23.244;2023-06-26T00:43:11;12.52;;;11.32;;
11414;SDS011;5763;42.714;23.244;2023-06-26T00:45:38;12.68;;;11.38;;
11414;SDS011;5763;42.714;23.244;2023-06-26T00:48:05;11.85;;;10.73;;
11414;SDS011;5763;42.714;23.244;2023-06-26T00:50:33;12.55;;;11.25;;
11414;SDS011;5763;42.714;23.244;2023-06-26T00:53:00;14.38;;;11.60;;
11414;SDS011;5763;42.714;23.244;2023-06-26T00:55:27;12.57;;;11.27;;
11414;SDS011;5763;42.714;23.244;2023-06-26T00:57:54;12.63;;;11.38;;
11414;SDS011;5763;42.714;23.244;2023-06-26T01:00:22;12.15;;;10.85;;
11414;SDS011;5763;42.714;23.244;2023-06-26T01:02:48;12.15;;;11.05;;
11414;SDS011;5763;42.714;23.244;2023-06-26T01:05:15;12.10;;;10.90;;
11414;SDS011;5763;42.714;23.244;2023-06-26T01:07:47;11.70;;;10.32;;
11414;SDS011;5763;42.714;23.244;2023-06-26T01:10:15;12.68;;;11.43;;
11414;SDS011;5763;42.714;23.244;2023-06-26T01:12:42;12.48;;;11.27;;
11414;SDS011;5763;42.714;23.244;2023-06-26T01:15:09;12.30;;;11.00;;
11414;SDS011;5763;42.714;23.244;2023-06-26T01:17:37;11.15;;;10.07;;
11414;SDS011;5763;42.714;23.244;2023-06-26T01:20:06;17.88;;;10.85;;
11414;SDS011;5763;42.714;23.244;2023-06-26T01:22:36;12.55;;;11.30;;
11414;SDS011;5763;42.714;23.244;2023-06-26T01:25:15;11.57;;;10.48;;
11414;SDS011;5763;42.714;23.244;2023-06-26T01:27:49;11.23;;;10.13;;
11414;SDS011;5763;42.714;23.244;2023-06-26T01:30:19;11.75;;;10.57;;
11414;SDS011;5763;42.714;23.244;2023-06-26T01:32:47;10.68;;;9.68;;
11414;SDS011;5763;42.714;23.244;2023-06-26T01:35:15;12.52;;;11.30;;
11414;SDS011;5763;42.714;23.244;2023-06-26T01:37:41;11.65;;;10.63;;
11414;SDS011;5763;42.714;23.244;2023-06-26T01:40:09;12.15;;;10.95;;
11414;SDS011;5763;42.714;23.244;2023-06-26T01:42:36;11.93;;;10.73;;
11414;SDS011;5763;42.714;23.244;2023-06-26T01:45:06;11.70;;;10.60;;
11414;SDS011;5763;42.714;23.244;2023-06-26T01:47:37;12.20;;;10.90;;
11414;SDS011;5763;42.714;23.244;2023-06-26T01:50:09;13.18;;;11.27;;
11414;SDS011;5763;42.714;23.244;2023-06-26T01:52:42;12.30;;;10.77;;
11414;SDS011;5763;42.714;23.244;2023-06-26T01:55:12;12.57;;;11.32;;
11414;SDS011;5763;42.714;23.244;2023-06-26T01:57:44;11.80;;;10.65;;
11414;SDS011;5763;42.714;23.244;2023-06-26T02:00:15;11.43;;;10.32;;
11414;SDS011;5763;42.714;23.244;2023-06-26T02:02:44;12.38;;;11.20;;
11414;SDS011;5763;42.714;23.244;2023-06-26T02:05:11;16.52;;;11.43;;
11414;SDS011;5763;42.714;23.244;2023-06-26T02:07:38;11.98;;;10.77;;
11414;SDS011;5763;42.714;23.244;2023-06-26T02:10:06;12.38;;;11.18;;
11414;SDS011;5763;42.714;23.244;2023-06-26T02:12:33;12.65;;;11.45;;
11414;SDS011;5763;42.714;23.244;2023-06-26T02:15:00;14.13;;;12.75;;
11414;SDS011;5763;42.714;23.244;2023-06-26T02:17:29;15.05;;;13.65;;
11414;SDS011;5763;42.714;23.244;2023-06-26T02:19:56;13.75;;;12.55;;
11414;SDS011;5763;42.714;23.244;2023-06-26T02:22:23;13.90;;;12.55;;
11414;SDS011;5763;42.714;23.244;2023-06-26T02:24:49;15.85;;;14.18;;
11414;SDS011;5763;42.714;23.244;2023-06-26T02:27:16;15.90;;;14.30;;
11414;SDS011;5763;42.714;23.244;2023-06-26T02:29:43;15.48;;;13.98;;
11414;SDS011;5763;42.714;23.244;2023-06-26T02:32:09;15.00;;;13.60;;
11414;SDS011;5763;42.714;23.244;2023-06-26T02:34:38;15.85;;;14.32;;
11414;SDS011;5763;42.714;23.244;2023-06-26T02:37:04;15.30;;;13.70;;
11414;SDS011;5763;42.714;23.244;2023-06-26T02:39:32;16.27;;;14.57;;
11414;SDS011;5763;42.714;23.244;2023-06-26T02:41:59;16.40;;;14.80;;
11414;SDS011;5763;42.714;23.244;2023-06-26T02:44:26;15.30;;;13.70;;
11414;SDS011;5763;42.714;23.244;2023-06-26T02:46:52;16.65;;;14.93;;
11414;SDS011;5763;42.714;23.244;2023-06-26T02:49:19;16.13;;;14.52;;
11414;SDS011;5763;42.714;23.244;2023-06-26T02:51:47;16.40;;;13.75;;
11414;SDS011;5763;42.714;23.244;2023-06-26T02:54:14;16.00;;;14.40;;
11414;SDS011;5763;42.714;23.244;2023-06-26T02:56:41;15.88;;;14.27;;
11414;SDS011;5763;42.714;23.244;2023-06-26T02:59:07;16.33;;;14.60;;
11414;SDS011;5763;42.714;23.244;2023-06-26T03:01:34;16.35;;;14.75;;
11414;SDS011;5763;42.714;23.244;2023-06-26T03:04:01;16.08;;;14.57;;
11414;SDS011;5763;42.714;23.244;2023-06-26T03:06:28;16.48;;;14.90;;
11414;SDS011;5763;42.714;23.244;2023-06-26T03:08:56;16.48;;;14.85;;
11414;SDS011;5763;42.714;23.244;2023-06-26T03:11:22;16.40;;;14.73;;
11414;SDS011;5763;42.714;23.244;2023-06-26T03:13:49;17.00;;;15.23;;
11414;SDS011;5763;42.714;23.244;2023-06-26T03:16:16;16.63;;;14.93;;
11414;SDS011;5763;42.714;23.244;2023-06-26T03:18:42;17.50;;;15.80;;
11414;SDS011;5763;42.714;23.244;2023-06-26T03:21:09;17.70;;;15.90;;
11414;SDS011;5763;42.714;23.244;2023-06-26T03:23:36;16.23;;;14.73;;
11414;SDS011;5763;42.714;23.244;2023-06-26T03:26:04;18.27;;;16.23;;
11414;SDS011;5763;42.714;23.244;2023-06-26T03:28:31;20.02;;;17.95;;
11414;SDS011;5763;42.714;23.244;2023-06-26T03:30:58;17.73;;;16.00;;
11414;SDS011;5763;42.714;23.244;2023-06-26T03:33:24;18.27;;;16.58;;
11414;SDS011;5763;42.714;23.244;2023-06-26T03:35:51;19.35;;;17.25;;
11414;SDS011;5763;42.714;23.244;2023-06-26T03:38:18;18.83;;;17.00;;
11414;SDS011;5763;42.714;23.244;2023-06-26T03:40:45;18.20;;;16.40;;
11414;SDS011;5763;42.714;23.244;2023-06-26T03:43:13;18.48;;;16.75;;
11414;SDS011;5763;42.714;23.244;2023-06-26T03:45:40;18.05;;;16.35;;
11414;SDS011;5763;42.714;23.244;2023-06-26T03:48:07;19.38;;;17.50;;
11414;SDS011;5763;42.714;23.244;2023-06-26T03:50:34;17.50;;;15.70;;
11414;SDS011;5763;42.714;23.244;2023-06-26T03:53:00;17.42;;;15.63;;
11414;SDS011;5763;42.714;23.244;2023-06-26T03:55:27;17.13;;;15.57;;
11414;SDS011;5763;42.714;23.244;2023-06-26T03:57:54;18.10;;;16.40;;
11414;SDS011;5763;42.714;23.244;2023-06-26T04:00:22;18.13;;;16.33;;
11414;SDS011;5763;42.714;23.244;2023-06-26T04:02:49;17.92;;;16.23;;
11414;SDS011;5763;42.714;23.244;2023-06-26T04:05:16;17.48;;;15.60;;
11414;SDS011;5763;42.714;23.244;2023-06-26T04:07:43;17.52;;;15.73;;
11414;SDS011;5763;42.714;23.244;2023-06-26T04:10:09;16.98;;;15.32;;
11414;SDS011;5763;42.714;23.244;2023-06-26T04:12:36;16.85;;;15.13;;
11414;SDS011;5763;42.714;23.244;2023-06-26T04:15:03;17.55;;;15.82;;
11414;SDS011;5763;42.714;23.244;2023-06-26T04:17:32;17.98;;;16.15;;
11414;SDS011;5763;42.714;23.244;2023-06-26T04:19:59;18.27;;;16.52;;
11414;SDS011;5763;42.714;23.244;2023-06-26T04:22:26;17.27;;;15.57;;
11414;SDS011;5763;42.714;23.244;2023-06-26T04:24:52;15.63;;;14.13;;
11414;SDS011;5763;42.714;23.244;2023-06-26T04:27:20;17.02;;;15.43;;
11414;SDS011;5763;42.714;23.244;2023-06-26T04:29:46;16.92;;;15.32;;
11414;SDS011;5763;42.714;23.244;2023-06-26T04:32:13;17.55;;;15.93;;
11414;SDS011;5763;42.714;23.244;2023-06-26T04:34:41;17.42;;;15.82;;
11414;SDS011;5763;42.714;23.244;2023-06-26T04:37:09;16.88;;;15.27;;
11414;SDS011;5763;42.714;23.244;2023-06-26T04:39:36;17.10;;;15.40;;
11414;SDS011;5763;42.714;23.244;2023-06-26T04:42:03;17.58;;;15.80;;
11414;SDS011;5763;42.714;23.244;2023-06-26T04:44:31;17.88;;;15.77;;
11414;SDS011;5763;42.714;23.244;2023-06-26T04:46:58;17.67;;;15.98;;
11414;SDS011;5763;42.714;23.244;2023-06-26T04:49:25;16.63;;;15.02;;
11414;SDS011;5763;42.714;23.244;2023-06-26T04:51:54;17.92;;;16.20;;
11414;SDS011;5763;42.714;23.244;2023-06-26T04:54:21;16.88;;;15.27;;
11414;SDS011;5763;42.714;23.244;2023-06-26T04:56:48;17.48;;;15.70;;
11414;SDS011;5763;42.714;23.244;2023-06-26T04:59:15;16.67;;;15.05;;
11414;SDS011;5763;42.714;23.244;2023-06-26T05:01:41;16.52;;;14.90;;
11414;SDS011;5763;42.714;23.244;2023-06-26T05:04:13;17.00;;;15.30;;
11414;SDS011;5763;42.714;23.244;2023-06-26T05:06:40;16.60;;;15.00;;
11414;SDS011;5763;42.714;23.244;2023-06-26T05:09:08;15.23;;;13.88;;
11414;SDS011;5763;42.714;23.244;2023-06-26T05:11:36;16.15;;;14.60;;
11414;SDS011;5763;42.714;23.244;2023-06-26T05:14:03;16.50;;;14.90;;
11414;SDS011;5763;42.714;23.244;2023-06-26T05:16:32;16.35;;;14.77;;
11414;SDS011;5763;42.714;23.244;2023-06-26T05:18:59;16.75;;;14.88;;
11414;SDS011;5763;42.714;23.244;2023-06-26T05:21:26;16.15;;;14.50;;
11414;SDS011;5763;42.714;23.244;2023-06-26T05:23:54;15.80;;;14.38;;
11414;SDS011;5763;42.714;23.244;2023-06-26T05:26:25;14.60;;;13.30;;
11414;SDS011;5763;42.714;23.244;2023-06-26T05:28:52;15.10;;;13.60;;
11414;SDS011;5763;42.714;23.244;2023-06-26T05:31:20;15.65;;;13.90;;
11414;SDS011;5763;42.714;23.244;2023-06-26T05:33:47;15.20;;;13.70;;
11414;SDS011;5763;42.714;23.244;2023-06-26T05:36:16;15.98;;;14.30;;
11414;SDS011;5763;42.714;23.244;2023-06-26T05:38:45;15.45;;;13.85;;
11414;SDS011;5763;42.714;23.244;2023-06-26T05:41:12;15.05;;;13.55;;
11414;SDS011;5763;42.714;23.244;2023-06-26T05:43:40;13.95;;;12.57;;
11414;SDS011;5763;42.714;23.244;2023-06-26T05:46:07;15.30;;;13.80;;
11414;SDS011;5763;42.714;23.244;2023-06-26T05:48:34;15.23;;;13.80;;
11414;SDS011;5763;42.714;23.244;2023-06-26T05:51:00;14.75;;;13.20;;
11414;SDS011;5763;42.714;23.244;2023-06-26T05:53:29;15.40;;;13.95;;
11414;SDS011;5763;42.714;23.244;2023-06-26T05:55:57;14.98;;;13.57;;
11414;SDS011;5763;42.714;23.244;2023-06-26T05:58:24;15.77;;;14.18;;
11414;SDS011;5763;42.714;23.244;2023-06-26T06:00:55;14.82;;;13.43;;
11414;SDS011;5763;42.714;23.244;2023-06-26T06:03:22;14.27;;;12.88;;
11414;SDS011;5763;42.714;23.244;2023-06-26T06:05:50;14.23;;;12.93;;
11414;SDS011;5763;42.714;23.244;2023-06-26T06:08:17;15.63;;;13.35;;
11414;SDS011;5763;42.714;23.244;2023-06-26T06:10:44;15.50;;;14.00;;
11414;SDS011;5763;42.714;23.244;2023-06-26T06:13:12;14.13;;;12.88;;
11414;SDS011;5763;42.714;23.244;2023-06-26T06:15:39;14.85;;;13.45;;
11414;SDS011;5763;42.714;23.244;2023-06-26T06:18:07;16.23;;;14.50;;
11414;SDS011;5763;42.714;23.244;2023-06-26T06:20:34;14.90;;;12.52;;
11414;SDS011;5763;42.714;23.244;2023-06-26T06:23:01;13.55;;;12.35;;
11414;SDS011;5763;42.714;23.244;2023-06-26T06:25:28;13.57;;;12.23;;
11414;SDS011;5763;42.714;23.244;2023-06-26T06:27:54;13.50;;;12.20;;
11414;SDS011;5763;42.714;23.244;2023-06-26T06:30:21;13.35;;;12.15;;
11414;SDS011;5763;42.714;23.244;2023-06-26T06:32:48;13.60;;;12.30;;
11414;SDS011;5763;42.714;23.244;2023-06-26T06:35:19;12.90;;;11.68;;
11414;SDS011;5763;42.714;23.244;2023-06-26T06:37:46;13.25;;;11.90;;
11414;SDS011;5763;42.714;23.244;2023-06-26T06:40:14;13.70;;;12.07;;
11414;SDS011;5763;42.714;23.244;2023-06-26T06:42:40;13.20;;;11.90;;
11414;SDS011;5763;42.714;23.244;2023-06-26T06:45:07;12.85;;;11.65;;
11414;SDS011;5763;42.714;23.244;2023-06-26T06:47:36;12.40;;;11.13;;
11414;SDS011;5763;42.714;23.244;2023-06-26T06:50:03;11.68;;;10.50;;
11414;SDS011;5763;42.714;23.244;2023-06-26T06:52:36;12.15;;;11.05;;
11414;SDS011;5763;42.714;23.244;2023-06-26T06:55:03;11.68;;;10.38;;
11414;SDS011;5763;42.714;23.244;2023-06-26T06:57:33;12.15;;;11.05;;
11414;SDS011;5763;42.714;23.244;2023-06-26T07:00:03;11.50;;;10.38;;
11414;SDS011;5763;42.714;23.244;2023-06-26T07:02:33;12.48;;;10.35;;
11414;SDS011;5763;42.714;23.244;2023-06-26T07:05:00;12.60;;;9.05;;
11414;SDS011;5763;42.714;23.244;2023-06-26T07:07:28;9.80;;;8.90;;
11414;SDS011;5763;42.714;23.244;2023-06-26T07:09:57;9.88;;;9.07;;
11414;SDS011;5763;42.714;23.244;2023-06-26T07:12:24;9.40;;;8.50;;
11414;SDS011;5763;42.714;23.244;2023-06-26T07:14:51;9.80;;;8.90;;
11414;SDS011;5763;42.714;23.244;2023-06-26T07:17:19;10.43;;;9.52;;
11414;SDS011;5763;42.714;23.244;2023-06-26T07:19:46;10.75;;;9.75;;
11414;SDS011;5763;42.714;23.244;2023-06-26T07:22:13;12.73;;;11.52;;
11414;SDS011;5763;42.714;23.244;2023-06-26T07:24:39;10.35;;;9.45;;
11414;SDS011;5763;42.714;23.244;2023-06-26T07:27:08;11.32;;;10.30;;
11414;SDS011;5763;42.714;23.244;2023-06-26T07:29:34;10.43;;;9.43;;
11414;SDS011;5763;42.714;23.244;2023-06-26T07:32:01;10.85;;;9.60;;
11414;SDS011;5763;42.714;23.244;2023-06-26T07:34:28;10.65;;;9.65;;
11414;SDS011;5763;42.714;23.244;2023-06-26T07:36:54;13.48;;;12.13;;
11414;SDS011;5763;42.714;23.244;2023-06-26T07:39:21;10.85;;;9.75;;
11414;SDS011;5763;42.714;23.244;2023-06-26T07:41:48;9.88;;;8.95;;
11414;SDS011;5763;42.714;23.244;2023-06-26T07:44:16;9.43;;;8.52;;
11414;SDS011;5763;42.714;23.244;2023-06-26T07:46:43;8.10;;;7.40;;
11414;SDS011;5763;42.714;23.244;2023-06-26T07:49:10;8.07;;;7.38;;
11414;SDS011;5763;42.714;23.244;2023-06-26T07:51:37;9.02;;;8.05;;
11414;SDS011;5763;42.714;23.244;2023-06-26T07:54:04;9.27;;;8.38;;
11414;SDS011;5763;42.714;23.244;2023-06-26T07:56:31;9.50;;;8.50;;
11414;SDS011;5763;42.714;23.244;2023-06-26T07:58:57;10.52;;;9.50;;
11414;SDS011;5763;42.714;23.244;2023-06-26T08:01:27;9.57;;;8.73;;
11414;SDS011;5763;42.714;23.244;2023-06-26T08:03:53;9.48;;;8.52;;
11414;SDS011;5763;42.714;23.244;2023-06-26T08:06:20;7.95;;;7.05;;
11414;SDS011;5763;42.714;23.244;2023-06-26T08:08:47;8.77;;;6.93;;
11414;SDS011;5763;42.714;23.244;2023-06-26T08:11:14;7.45;;;6.78;;
11414;SDS011;5763;42.714;23.244;2023-06-26T08:13:41;8.00;;;7.20;;
11414;SDS011;5763;42.714;23.244;2023-06-26T08:16:07;7.97;;;7.10;;
11414;SDS011;5763;42.714;23.244;2023-06-26T08:18:35;7.50;;;6.47;;
11414;SDS011;5763;42.714;23.244;2023-06-26T08:21:02;8.82;;;8.00;;
11414;SDS011;5763;42.714;23.244;2023-06-26T08:23:29;8.35;;;7.28;;
11414;SDS011;5763;42.714;23.244;2023-06-26T08:25:56;8.10;;;7.40;;
11414;SDS011;5763;42.714;23.244;2023-06-26T08:28:24;6.80;;;6.10;;
11414;SDS011;5763;42.714;23.244;2023-06-26T08:30:50;8.00;;;7.20;;
11414;SDS011;5763;42.714;23.244;2023-06-26T08:33:18;7.60;;;6.68;;
11414;SDS011;5763;42.714;23.244;2023-06-26T08:35:46;8.55;;;6.38;;
11414;SDS011;5763;42.714;23.244;2023-06-26T08:38:12;6.75;;;5.80;;
11414;SDS011;5763;42.714;23.244;2023-06-26T08:40:39;6.30;;;5.70;;
11414;SDS011;5763;42.714;23.244;2023-06-26T08:43:06;5.85;;;5.35;;
11414;SDS011;5763;42.714;23.244;2023-06-26T08:45:33;6.68;;;5.72;;
11414;SDS011;5763;42.714;23.244;2023-06-26T08:48:00;6.38;;;5.80;;
11414;SDS011;5763;42.714;23.244;2023-06-26T08:50:30;6.25;;;5.75;;
11414;SDS011;5763;42.714;23.244;2023-06-26T08:53:03;9.75;;;5.97;;
11414;SDS011;5763;42.714;23.244;2023-06-26T08:55:33;6.63;;;5.65;;
11414;SDS011;5763;42.714;23.244;2023-06-26T08:58:04;6.25;;;5.65;;
11414;SDS011;5763;42.714;23.244;2023-06-26T09:00:32;6.93;;;6.00;;
11414;SDS011;5763;42.714;23.244;2023-06-26T09:03:00;6.18;;;5.57;;
11414;SDS011;5763;42.714;23.244;2023-06-26T09:05:29;7.93;;;6.25;;
11414;SDS011;5763;42.714;23.244;2023-06-26T09:07:57;6.53;;;5.93;;
11414;SDS011;5763;42.714;23.244;2023-06-26T09:10:25;6.22;;;5.50;;
11414;SDS011;5763;42.714;23.244;2023-06-26T09:12:52;5.60;;;5.10;;
11414;SDS011;5763;42.714;23.244;2023-06-26T09:15:21;5.82;;;5.28;;
11414;SDS011;5763;42.714;23.244;2023-06-26T09:17:48;6.13;;;5.63;;
11414;SDS011;5763;42.714;23.244;2023-06-26T09:20:15;5.93;;;5.32;;
11414;SDS011;5763;42.714;23.244;2023-06-26T09:22:42;5.63;;;5.13;;
11414;SDS011;5763;42.714;23.244;2023-06-26T09:25:13;6.50;;;5.80;;
11414;SDS011;5763;42.714;23.244;2023-06-26T09:27:41;6.53;;;5.32;;
11414;SDS011;5763;42.714;23.244;2023-06-26T09:30:10;6.93;;;5.65;;
11414;SDS011;5763;42.714;23.244;2023-06-26T09:32:37;5.97;;;5.38;;
11414;SDS011;5763;42.714;23.244;2023-06-26T09:35:04;5.95;;;5.45;;
11414;SDS011;5763;42.714;23.244;2023-06-26T09:37:31;5.78;;;5.28;;
11414;SDS011;5763;42.714;23.244;2023-06-26T09:39:59;6.50;;;5.65;;
11414;SDS011;5763;42.714;23.244;2023-06-26T09:42:26;7.15;;;5.63;;
11414;SDS011;5763;42.714;23.244;2023-06-26T09:44:54;6.72;;;5.70;;
11414;SDS011;5763;42.714;23.244;2023-06-26T09:47:21;6.97;;;5.72;;
11414;SDS011;5763;42.714;23.244;2023-06-26T09:49:48;6.05;;;5.45;;
11414;SDS011;5763;42.714;23.244;2023-06-26T09:52:15;7.00;;;5.93;;
11414;SDS011;5763;42.714;23.244;2023-06-26T09:54:43;6.53;;;5.80;;
11414;SDS011;5763;42.714;23.244;2023-06-26T09:57:10;5.40;;;4.90;;
11414;SDS011;5763;42.714;23.244;2023-06-26T09:59:39;6.03;;;5.47;;
11414;SDS011;5763;42.714;23.244;2023-06-26T10:02:07;6.07;;;5.47;;
11414;SDS011;5763;42.714;23.244;2023-06-26T10:04:36;7.03;;;5.60;;
11414;SDS011;5763;42.714;23.244;2023-06-26T10:07:04;6.18;;;5.75;;
11414;SDS011;5763;42.714;23.244;2023-06-26T10:09:32;6.15;;;5.55;;
11414;SDS011;5763;42.714;23.244;2023-06-26T10:12:01;5.78;;;5.07;;
11414;SDS011;5763;42.714;23.244;2023-06-26T10:14:33;7.60;;;5.70;;
11414;SDS011;5763;42.714;23.244;2023-06-26T10:17:03;6.10;;;5.60;;
11414;SDS011;5763;42.714;23.244;2023-06-26T10:19:33;7.53;;;5.60;;
11414;SDS011;5763;42.714;23.244;2023-06-26T10:22:01;7.57;;;5.55;;
11414;SDS011;5763;42.714;23.244;2023-06-26T10:24:31;6.35;;;5.75;;
11414;SDS011;5763;42.714;23.244;2023-06-26T10:27:02;5.53;;;5.07;;
11414;SDS011;5763;42.714;23.244;2023-06-26T10:29:34;5.65;;;5.10;;
11414;SDS011;5763;42.714;23.244;2023-06-26T10:32:02;6.03;;;5.43;;
11414;SDS011;5763;42.714;23.244;2023-06-26T10:34:33;7.70;;;6.10;;
11414;SDS011;5763;42.714;23.244;2023-06-26T10:37:00;6.20;;;5.60;;
11414;SDS011;5763;42.714;23.244;2023-06-26T10:39:31;6.82;;;5.80;;
11414;SDS011;5763;42.714;23.244;2023-06-26T10:42:12;6.55;;;5.95;;
11414;SDS011;5763;42.714;23.244;2023-06-26T10:44:40;6.88;;;6.10;;
11414;SDS011;5763;42.714;23.244;2023-06-26T10:47:08;8.57;;;6.03;;
11414;SDS011;5763;42.714;23.244;2023-06-26T10:49:37;7.82;;;6.35;;
11414;SDS011;5763;42.714;23.244;2023-06-26T10:52:05;6.72;;;6.13;;
11414;SDS011;5763;42.714;23.244;2023-06-26T10:54:32;6.47;;;5.70;;
11414;SDS011;5763;42.714;23.244;2023-06-26T10:56:59;6.80;;;5.30;;
11414;SDS011;5763;42.714;23.244;2023-06-26T10:59:27;8.05;;;5.85;;
11414;SDS011;5763;42.714;23.244;2023-06-26T11:01:56;6.80;;;6.10;;
11414;SDS011;5763;42.714;23.244;2023-06-26T11:04:38;8.30;;;5.70;;
11414;SDS011;5763;42.714;23.244;2023-06-26T11:07:15;5.97;;;5.45;;
11414;SDS011;5763;42.714;23.244;2023-06-26T11:09:56;6.10;;;5.50;;
11414;SDS011;5763;42.714;23.244;2023-06-26T11:12:36;6.20;;;5.63;;
11414;SDS011;5763;42.714;23.244;2023-06-26T11:15:04;7.65;;;5.65;;
11414;SDS011;5763;42.714;23.244;2023-06-26T11:17:34;5.10;;;4.60;;
11414;SDS011;5763;42.714;23.244;2023-06-26T11:20:03;5.60;;;5.10;;
11414;SDS011;5763;42.714;23.244;2023-06-26T11:22:33;5.55;;;5.05;;
11414;SDS011;5763;42.714;23.244;2023-06-26T11:25:01;5.88;;;5.20;;
11414;SDS011;5763;42.714;23.244;2023-06-26T11:27:32;5.10;;;4.60;;
11414;SDS011;5763;42.714;23.244;2023-06-26T11:29:59;5.65;;;5.03;;
11414;SDS011;5763;42.714;23.244;2023-06-26T11:32:27;5.93;;;5.43;;
11414;SDS011;5763;42.714;23.244;2023-06-26T11:34:54;5.97;;;5.40;;
11414;SDS011;5763;42.714;23.244;2023-06-26T11:37:22;5.68;;;4.90;;
11414;SDS011;5763;42.714;23.244;2023-06-26T11:39:49;5.93;;;5.20;;
11414;SDS011;5763;42.714;23.244;2023-06-26T11:42:16;5.38;;;4.88;;
11414;SDS011;5763;42.714;23.244;2023-06-26T11:44:43;6.50;;;5.97;;
11414;SDS011;5763;42.714;23.244;2023-06-26T11:47:13;6.00;;;5.40;;
11414;SDS011;5763;42.714;23.244;2023-06-26T11:49:42;6.97;;;5.40;;
11414;SDS011;5763;42.714;23.244;2023-06-26T11:52:09;6.40;;;5.60;;
11414;SDS011;5763;42.714;23.244;2023-06-26T11:54:37;6.43;;;5.82;;
11414;SDS011;5763;42.714;23.244;2023-06-26T11:57:04;6.70;;;6.10;;
11414;SDS011;5763;42.714;23.244;2023-06-26T11:59:33;6.40;;;5.85;;
11414;SDS011;5763;42.714;23.244;2023-06-26T12:02:04;6.80;;;6.10;;
11414;SDS011;5763;42.714;23.244;2023-06-26T12:04:31;5.97;;;5.38;;
11414;SDS011;5763;42.714;23.244;2023-06-26T12:07:00;5.50;;;5.00;;
11414;SDS011;5763;42.714;23.244;2023-06-26T12:09:30;5.13;;;4.72;;
11414;SDS011;5763;42.714;23.244;2023-06-26T12:12:00;5.68;;;5.18;;
11414;SDS011;5763;42.714;23.244;2023-06-26T12:14:27;5.80;;;4.60;;
11414;SDS011;5763;42.714;23.244;2023-06-26T12:16:55;5.97;;;5.38;;
11414;SDS011;5763;42.714;23.244;2023-06-26T12:19:25;5.60;;;5.10;;
11414;SDS011;5763;42.714;23.244;2023-06-26T12:21:52;6.22;;;4.85;;
11414;SDS011;5763;42.714;23.244;2023-06-26T12:24:22;5.60;;;4.93;;
11414;SDS011;5763;42.714;23.244;2023-06-26T12:26:51;7.40;;;5.55;;
11414;SDS011;5763;42.714;23.244;2023-06-26T12:29:28;6.50;;;5.43;;
11414;SDS011;5763;42.714;23.244;2023-06-26T12:31:57;5.40;;;4.90;;
11414;SDS011;5763;42.714;23.244;2023-06-26T12:34:26;6.20;;;5.60;;
11414;SDS011;5763;42.714;23.244;2023-06-26T12:36:59;6.45;;;5.80;;
11414;SDS011;5763;42.714;23.244;2023-06-26T12:39:28;5.95;;;5.35;;
11414;SDS011;5763;42.714;23.244;2023-06-26T12:41:57;6.05;;;5.53;;
11414;SDS011;5763;42.714;23.244;2023-06-26T12:44:27;8.20;;;5.82;;
11414;SDS011;5763;42.714;23.244;2023-06-26T12:46:56;6.63;;;5.75;;
11414;SDS011;5763;42.714;23.244;2023-06-26T12:49:30;8.02;;;6.35;;
11414;SDS011;5763;42.714;23.244;2023-06-26T12:51:59;7.00;;;6.03;;
11414;SDS011;5763;42.714;23.244;2023-06-26T12:54:26;7.00;;;6.30;;
11414;SDS011;5763;42.714;23.244;2023-06-26T12:56:53;6.45;;;5.57;;
11414;SDS011;5763;42.714;23.244;2023-06-26T12:59:21;6.90;;;6.10;;
11414;SDS011;5763;42.714;23.244;2023-06-26T13:01:49;6.72;;;5.70;;
11414;SDS011;5763;42.714;23.244;2023-06-26T13:04:16;7.20;;;5.70;;
11414;SDS011;5763;42.714;23.244;2023-06-26T13:06:43;6.47;;;5.30;;
11414;SDS011;5763;42.714;23.244;2023-06-26T13:09:10;6.22;;;5.50;;
11414;SDS011;5763;42.714;23.244;2023-06-26T13:11:37;6.78;;;6.18;;
11414;SDS011;5763;42.714;23.244;2023-06-26T13:14:04;6.03;;;5.43;;
11414;SDS011;5763;42.714;23.244;2023-06-26T13:16:31;6.68;;;5.97;;
11414;SDS011;5763;42.714;23.244;2023-06-26T13:18:59;6.18;;;5.65;;
11414;SDS011;5763;42.714;23.244;2023-06-26T13:21:27;5.97;;;5.47;;
11414;SDS011;5763;42.714;23.244;2023-06-26T13:23:54;6.38;;;5.38;;
11414;SDS011;5763;42.714;23.244;2023-06-26T13:26:21;5.70;;;5.20;;
11414;SDS011;5763;42.714;23.244;2023-06-26T13:28:49;8.27;;;5.60;;
11414;SDS011;5763;42.714;23.244;2023-06-26T13:31:15;6.95;;;5.40;;
11414;SDS011;5763;42.714;23.244;2023-06-26T13:33:42;6.13;;;5.53;;
11414;SDS011;5763;42.714;23.244;2023-06-26T13:36:12;5.57;;;5.00;;
11414;SDS011;5763;42.714;23.244;2023-06-26T13:38:39;6.07;;;5.38;;
11414;SDS011;5763;42.714;23.244;2023-06-26T13:41:06;5.43;;;4.93;;
11414;SDS011;5763;42.714;23.244;2023-06-26T13:43:32;6.05;;;5.38;;
11414;SDS011;5763;42.714;23.244;2023-06-26T13:45:59;5.63;;;4.97;;
11414;SDS011;5763;42.714;23.244;2023-06-26T13:48:28;6.93;;;5.20;;
11414;SDS011;5763;42.714;23.244;2023-06-26T13:50:55;5.70;;;5.20;;
11414;SDS011;5763;42.714;23.244;2023-06-26T13:53:23;7.65;;;5.93;;
11414;SDS011;5763;42.714;23.244;2023-06-26T13:55:50;6.63;;;6.03;;
11414;SDS011;5763;42.714;23.244;2023-06-26T13:58:17;6.30;;;5.70;;
11414;SDS011;5763;42.714;23.244;2023-06-26T14:00:49;7.43;;;6.63;;
11414;SDS011;5763;42.714;23.244;2023-06-26T14:03:16;6.68;;;5.50;;
11414;SDS011;5763;42.714;23.244;2023-06-26T14:05:43;8.68;;;7.88;;
11414;SDS011;5763;42.714;23.244;2023-06-26T14:08:10;11.88;;;10.40;;
11414;SDS011;5763;42.714;23.244;2023-06-26T14:10:38;11.32;;;10.32;;
11414;SDS011;5763;42.714;23.244;2023-06-26T14:13:05;11.13;;;10.10;;
11414;SDS011;5763;42.714;23.244;2023-06-26T14:15:32;8.52;;;7.40;;
11414;SDS011;5763;42.714;23.244;2023-06-26T14:18:00;11.68;;;7.55;;
11414;SDS011;5763;42.714;23.244;2023-06-26T14:20:28;7.65;;;6.53;;
11414;SDS011;5763;42.714;23.244;2023-06-26T14:22:57;6.65;;;5.95;;
11414;SDS011;5763;42.714;23.244;2023-06-26T14:25:24;7.18;;;5.00;;
11414;SDS011;5763;42.714;23.244;2023-06-26T14:27:54;5.93;;;5.03;;
11414;SDS011;5763;42.714;23.244;2023-06-26T14:30:22;5.95;;;5.32;;
11414;SDS011;5763;42.714;23.244;2023-06-26T14:32:49;6.47;;;5.88;;
11414;SDS011;5763;42.714;23.244;2023-06-26T14:35:16;5.38;;;4.88;;
11414;SDS011;5763;42.714;23.244;2023-06-26T14:37:43;7.07;;;5.88;;